sensor_id;sensor_type;location;lat;lon;timestamp;P1;durP1;ratioP1;P2;durP2;ratioP2
41739;SDS011;27422;52.444;13.300;2024-01-30T00:00:37;11.95;;;5.85;;
41739;SDS011;27422;52.444;13.300;2024-01-30T00:03:03;12.45;;;6.43;;
41739;SDS011;27422;52.444;13.300;2024-01-30T00:05:28;10.75;;;6.22;;
41739;SDS011;27422;52.444;13.300;2024-01-30T00:07:54;13.05;;;6.03;;
41739;SDS011;27422;52.444;13.300;2024-01-30T00:10:19;14.73;;;6.70;;
41739;SDS011;27422;52.444;13.300;2024-01-30T00:12:50;11.88;;;5.93;;
41739;SDS011;27422;52.444;13.300;2024-01-30T00:15:16;11.45;;;5.65;;
41739;SDS011;27422;52.444;13.300;2024-01-30T00:17:44;12.23;;;6.10;;
41739;SDS011;27422;52.444;13.300;2024-01-30T00:20:17;11.02;;;5.75;;
41739;SDS011;27422;52.444;13.300;2024-01-30T00:22:43;13.60;;;5.88;;
41739;SDS011;27422;52.444;13.300;2024-01-30T00:25:08;9.73;;;5.18;;
41739;SDS011;27422;52.444;13.300;2024-01-30T00:27:34;10.93;;;5.70;;
41739;SDS011;27422;52.444;13.300;2024-01-30T00:30:00;10.95;;;5.53;;
41739;SDS011;27422;52.444;13.300;2024-01-30T00:32:25;12.25;;;6.00;;
41739;SDS011;27422;52.444;13.300;2024-01-30T00:34:50;11.13;;;5.60;;
41739;SDS011;27422;52.444;13.300;2024-01-30T00:37:16;12.95;;;5.78;;
41739;SDS011;27422;52.444;13.300;2024-01-30T00:39:41;12.85;;;6.03;;
41739;SDS011;27422;52.444;13.300;2024-01-30T00:42:07;11.75;;;5.72;;
41739;SDS011;27422;52.444;13.300;2024-01-30T00:44:34;10.32;;;5.82;;
41739;SDS011;27422;52.444;13.300;2024-01-30T00:47:03;11.00;;;5.43;;
41739;SDS011;27422;52.444;13.300;2024-01-30T00:49:29;12.20;;;5.68;;
41739;SDS011;27422;52.444;13.300;2024-01-30T00:51:55;10.85;;;5.70;;
41739;SDS011;27422;52.444;13.300;2024-01-30T00:54:20;13.10;;;5.80;;
41739;SDS011;27422;52.444;13.300;2024-01-30T00:56:48;10.98;;;5.47;;
41739;SDS011;27422;52.444;13.300;2024-01-30T00:59:13;13.30;;;5.43;;
41739;SDS011;27422;52.444;13.300;2024-01-30T01:01:39;9.40;;;5.32;;
41739;SDS011;27422;52.444;13.300;2024-01-30T01:04:04;11.55;;;5.47;;
41739;SDS011;27422;52.444;13.300;2024-01-30T01:06:39;11.43;;;5.30;;
41739;SDS011;27422;52.444;13.300;2024-01-30T01:09:07;10.68;;;5.30;;
41739;SDS011;27422;52.444;13.300;2024-01-30T01:11:35;14.00;;;6.03;;
41739;SDS011;27422;52.444;13.300;2024-01-30T01:14:03;11.20;;;5.18;;
41739;SDS011;27422;52.444;13.300;2024-01-30T01:16:37;11.43;;;5.30;;
41739;SDS011;27422;52.444;13.300;2024-01-30T01:19:02;12.30;;;5.10;;
41739;SDS011;27422;52.444;13.300;2024-01-30T01:21:28;11.63;;;5.82;;
41739;SDS011;27422;52.444;13.300;2024-01-30T01:23:56;10.93;;;5.80;;
41739;SDS011;27422;52.444;13.300;2024-01-30T01:26:26;9.40;;;5.65;;
41739;SDS011;27422;52.444;13.300;2024-01-30T01:29:01;9.32;;;5.40;;
41739;SDS011;27422;52.444;13.300;2024-01-30T01:31:26;11.70;;;5.35;;
41739;SDS011;27422;52.444;13.300;2024-01-30T01:33:54;13.10;;;6.40;;
41739;SDS011;27422;52.444;13.300;2024-01-30T01:36:20;11.40;;;5.20;;
41739;SDS011;27422;52.444;13.300;2024-01-30T01:38:45;13.07;;;5.18;;
41739;SDS011;27422;52.444;13.300;2024-01-30T01:41:10;10.25;;;5.22;;
41739;SDS011;27422;52.444;13.300;2024-01-30T01:43:36;10.93;;;5.38;;
41739;SDS011;27422;52.444;13.300;2024-01-30T01:48:29;10.93;;;5.35;;
41739;SDS011;27422;52.444;13.300;2024-01-30T01:50:54;11.95;;;5.80;;
41739;SDS011;27422;52.444;13.300;2024-01-30T01:53:22;10.75;;;5.70;;
41739;SDS011;27422;52.444;13.300;2024-01-30T01:55:50;12.20;;;6.00;;
41739;SDS011;27422;52.444;13.300;2024-01-30T01:58:17;10.82;;;5.88;;
41739;SDS011;27422;52.444;13.300;2024-01-30T02:00:45;13.10;;;5.70;;
41739;SDS011;27422;52.444;13.300;2024-01-30T02:03:11;10.30;;;5.55;;
41739;SDS011;27422;52.444;13.300;2024-01-30T02:10:32;10.70;;;5.68;;
41739;SDS011;27422;52.444;13.300;2024-01-30T02:12:58;10.60;;;5.72;;
41739;SDS011;27422;52.444;13.300;2024-01-30T02:15:26;9.25;;;5.50;;
41739;SDS011;27422;52.444;13.300;2024-01-30T02:17:51;11.88;;;5.72;;
41739;SDS011;27422;52.444;13.300;2024-01-30T02:20:17;11.25;;;5.65;;
41739;SDS011;27422;52.444;13.300;2024-01-30T02:22:43;11.85;;;5.68;;
41739;SDS011;27422;52.444;13.300;2024-01-30T02:25:09;12.60;;;6.00;;
41739;SDS011;27422;52.444;13.300;2024-01-30T02:27:34;12.35;;;5.40;;
41739;SDS011;27422;52.444;13.300;2024-01-30T02:30:00;12.40;;;5.75;;
41739;SDS011;27422;52.444;13.300;2024-01-30T02:32:29;12.52;;;5.40;;
41739;SDS011;27422;52.444;13.300;2024-01-30T02:34:54;11.35;;;5.63;;
41739;SDS011;27422;52.444;13.300;2024-01-30T02:37:19;12.07;;;6.20;;
41739;SDS011;27422;52.444;13.300;2024-01-30T02:39:48;11.63;;;6.28;;
41739;SDS011;27422;52.444;13.300;2024-01-30T02:42:13;11.85;;;5.88;;
41739;SDS011;27422;52.444;13.300;2024-01-30T02:44:39;10.70;;;5.38;;
41739;SDS011;27422;52.444;13.300;2024-01-30T02:47:04;9.77;;;5.60;;
41739;SDS011;27422;52.444;13.300;2024-01-30T02:49:30;11.20;;;5.55;;
41739;SDS011;27422;52.444;13.300;2024-01-30T02:51:55;11.25;;;5.53;;
41739;SDS011;27422;52.444;13.300;2024-01-30T02:54:21;10.75;;;5.72;;
41739;SDS011;27422;52.444;13.300;2024-01-30T02:56:47;14.43;;;6.00;;
41739;SDS011;27422;52.444;13.300;2024-01-30T02:59:13;11.27;;;6.00;;
41739;SDS011;27422;52.444;13.300;2024-01-30T03:01:42;11.43;;;5.63;;
41739;SDS011;27422;52.444;13.300;2024-01-30T03:04:09;12.63;;;6.10;;
41739;SDS011;27422;52.444;13.300;2024-01-30T03:06:34;11.27;;;6.05;;
41739;SDS011;27422;52.444;13.300;2024-01-30T03:09:00;10.40;;;5.32;;
41739;SDS011;27422;52.444;13.300;2024-01-30T03:11:25;11.23;;;6.40;;
41739;SDS011;27422;52.444;13.300;2024-01-30T03:13:50;11.93;;;6.30;;
41739;SDS011;27422;52.444;13.300;2024-01-30T03:16:16;11.00;;;5.90;;
41739;SDS011;27422;52.444;13.300;2024-01-30T03:18:42;10.50;;;5.55;;
41739;SDS011;27422;52.444;13.300;2024-01-30T03:21:07;13.40;;;6.70;;
41739;SDS011;27422;52.444;13.300;2024-01-30T03:23:32;12.48;;;6.60;;
41739;SDS011;27422;52.444;13.300;2024-01-30T03:25:58;12.98;;;6.40;;
41739;SDS011;27422;52.444;13.300;2024-01-30T03:28:23;11.60;;;5.85;;
41739;SDS011;27422;52.444;13.300;2024-01-30T03:30:49;10.52;;;5.70;;
41739;SDS011;27422;52.444;13.300;2024-01-30T03:33:14;13.82;;;6.05;;
41739;SDS011;27422;52.444;13.300;2024-01-30T03:35:40;12.23;;;5.72;;
41739;SDS011;27422;52.444;13.300;2024-01-30T03:38:06;11.43;;;6.05;;
41739;SDS011;27422;52.444;13.300;2024-01-30T03:40:31;12.90;;;6.53;;
41739;SDS011;27422;52.444;13.300;2024-01-30T03:42:57;10.27;;;6.25;;
41739;SDS011;27422;52.444;13.300;2024-01-30T03:45:23;11.57;;;6.15;;
41739;SDS011;27422;52.444;13.300;2024-01-30T03:47:48;13.55;;;6.43;;
41739;SDS011;27422;52.444;13.300;2024-01-30T03:50:13;11.15;;;6.15;;
41739;SDS011;27422;52.444;13.300;2024-01-30T03:52:39;11.98;;;6.60;;
41739;SDS011;27422;52.444;13.300;2024-01-30T03:55:04;12.57;;;6.10;;
41739;SDS011;27422;52.444;13.300;2024-01-30T03:57:30;11.18;;;6.03;;
41739;SDS011;27422;52.444;13.300;2024-01-30T03:59:55;13.80;;;6.25;;
41739;SDS011;27422;52.444;13.300;2024-01-30T04:02:21;12.35;;;6.50;;
41739;SDS011;27422;52.444;13.300;2024-01-30T04:04:46;11.00;;;6.28;;
41739;SDS011;27422;52.444;13.300;2024-01-30T04:07:12;12.30;;;5.85;;
41739;SDS011;27422;52.444;13.300;2024-01-30T04:09:38;10.95;;;5.88;;
41739;SDS011;27422;52.444;13.300;2024-01-30T04:12:03;10.23;;;5.93;;
41739;SDS011;27422;52.444;13.300;2024-01-30T04:14:29;11.43;;;6.15;;
41739;SDS011;27422;52.444;13.300;2024-01-30T04:16:55;13.38;;;5.95;;
41739;SDS011;27422;52.444;13.300;2024-01-30T04:19:20;13.27;;;6.10;;
41739;SDS011;27422;52.444;13.300;2024-01-30T04:21:45;10.65;;;6.50;;
41739;SDS011;27422;52.444;13.300;2024-01-30T04:24:11;11.75;;;6.18;;
41739;SDS011;27422;52.444;13.300;2024-01-30T04:26:39;13.43;;;6.50;;
41739;SDS011;27422;52.444;13.300;2024-01-30T04:29:05;10.95;;;5.88;;
41739;SDS011;27422;52.444;13.300;2024-01-30T04:31:30;11.52;;;5.65;;
41739;SDS011;27422;52.444;13.300;2024-01-30T04:33:56;12.52;;;6.90;;
41739;SDS011;27422;52.444;13.300;2024-01-30T04:36:21;13.48;;;6.05;;
41739;SDS011;27422;52.444;13.300;2024-01-30T04:38:46;11.23;;;5.90;;
41739;SDS011;27422;52.444;13.300;2024-01-30T04:41:12;9.65;;;5.78;;
41739;SDS011;27422;52.444;13.300;2024-01-30T04:43:37;11.18;;;5.25;;
41739;SDS011;27422;52.444;13.300;2024-01-30T04:46:06;11.23;;;5.60;;
41739;SDS011;27422;52.444;13.300;2024-01-30T04:48:31;13.02;;;6.20;;
41739;SDS011;27422;52.444;13.300;2024-01-30T04:50:56;10.48;;;6.00;;
41739;SDS011;27422;52.444;13.300;2024-01-30T04:53:22;12.90;;;6.25;;
41739;SDS011;27422;52.444;13.300;2024-01-30T04:55:47;11.55;;;6.20;;
41739;SDS011;27422;52.444;13.300;2024-01-30T04:58:13;12.32;;;6.20;;
41739;SDS011;27422;52.444;13.300;2024-01-30T05:00:38;15.45;;;6.07;;
41739;SDS011;27422;52.444;13.300;2024-01-30T05:03:04;12.55;;;6.28;;
41739;SDS011;27422;52.444;13.300;2024-01-30T05:05:35;12.95;;;6.30;;
41739;SDS011;27422;52.444;13.300;2024-01-30T05:08:01;14.38;;;6.55;;
41739;SDS011;27422;52.444;13.300;2024-01-30T05:10:26;13.25;;;6.63;;
41739;SDS011;27422;52.444;13.300;2024-01-30T05:12:53;10.75;;;5.93;;
41739;SDS011;27422;52.444;13.300;2024-01-30T05:15:19;14.20;;;6.63;;
41739;SDS011;27422;52.444;13.300;2024-01-30T05:17:44;12.23;;;6.10;;
41739;SDS011;27422;52.444;13.300;2024-01-30T05:20:10;12.50;;;6.45;;
41739;SDS011;27422;52.444;13.300;2024-01-30T05:22:36;10.38;;;6.20;;
41739;SDS011;27422;52.444;13.300;2024-01-30T05:25:01;11.63;;;6.38;;
41739;SDS011;27422;52.444;13.300;2024-01-30T05:27:26;14.32;;;6.65;;
41739;SDS011;27422;52.444;13.300;2024-01-30T05:29:52;12.70;;;6.50;;
41739;SDS011;27422;52.444;13.300;2024-01-30T05:32:37;17.85;;;6.88;;
41739;SDS011;27422;52.444;13.300;2024-01-30T05:35:03;11.95;;;5.93;;
41739;SDS011;27422;52.444;13.300;2024-01-30T05:37:29;10.18;;;6.00;;
41739;SDS011;27422;52.444;13.300;2024-01-30T05:39:54;15.20;;;6.25;;
41739;SDS011;27422;52.444;13.300;2024-01-30T05:42:19;11.88;;;6.43;;
41739;SDS011;27422;52.444;13.300;2024-01-30T05:44:45;12.80;;;6.38;;
41739;SDS011;27422;52.444;13.300;2024-01-30T05:47:10;13.55;;;6.95;;
41739;SDS011;27422;52.444;13.300;2024-01-30T05:49:36;13.65;;;6.40;;
41739;SDS011;27422;52.444;13.300;2024-01-30T05:52:02;11.57;;;6.38;;
41739;SDS011;27422;52.444;13.300;2024-01-30T05:54:29;12.23;;;6.30;;
41739;SDS011;27422;52.444;13.300;2024-01-30T05:56:54;11.27;;;6.10;;
41739;SDS011;27422;52.444;13.300;2024-01-30T05:59:22;13.00;;;6.35;;
41739;SDS011;27422;52.444;13.300;2024-01-30T06:01:48;14.70;;;6.70;;
41739;SDS011;27422;52.444;13.300;2024-01-30T06:04:14;13.45;;;6.35;;
41739;SDS011;27422;52.444;13.300;2024-01-30T06:06:40;11.02;;;6.05;;
41739;SDS011;27422;52.444;13.300;2024-01-30T06:09:06;12.77;;;6.57;;
41739;SDS011;27422;52.444;13.300;2024-01-30T06:13:59;12.88;;;6.32;;
41739;SDS011;27422;52.444;13.300;2024-01-30T06:16:24;12.85;;;6.57;;
41739;SDS011;27422;52.444;13.300;2024-01-30T06:18:54;14.98;;;7.10;;
41739;SDS011;27422;52.444;13.300;2024-01-30T06:21:20;12.88;;;6.43;;
41739;SDS011;27422;52.444;13.300;2024-01-30T06:23:46;12.38;;;6.70;;
41739;SDS011;27422;52.444;13.300;2024-01-30T06:26:11;10.40;;;6.35;;
41739;SDS011;27422;52.444;13.300;2024-01-30T06:28:37;11.88;;;6.35;;
41739;SDS011;27422;52.444;13.300;2024-01-30T06:31:02;12.55;;;6.43;;
41739;SDS011;27422;52.444;13.300;2024-01-30T06:33:28;13.25;;;6.47;;
41739;SDS011;27422;52.444;13.300;2024-01-30T06:35:54;12.63;;;6.53;;
41739;SDS011;27422;52.444;13.300;2024-01-30T06:38:19;13.35;;;7.20;;
41739;SDS011;27422;52.444;13.300;2024-01-30T06:40:45;14.40;;;7.03;;
41739;SDS011;27422;52.444;13.300;2024-01-30T06:43:10;10.85;;;6.57;;
41739;SDS011;27422;52.444;13.300;2024-01-30T06:45:39;12.45;;;6.50;;
41739;SDS011;27422;52.444;13.300;2024-01-30T06:48:05;12.73;;;6.82;;
41739;SDS011;27422;52.444;13.300;2024-01-30T06:50:31;13.98;;;7.20;;
41739;SDS011;27422;52.444;13.300;2024-01-30T06:52:56;12.05;;;6.53;;
41739;SDS011;27422;52.444;13.300;2024-01-30T06:55:22;12.57;;;6.80;;
41739;SDS011;27422;52.444;13.300;2024-01-30T06:57:47;11.85;;;7.05;;
41739;SDS011;27422;52.444;13.300;2024-01-30T07:00:13;14.00;;;7.30;;
41739;SDS011;27422;52.444;13.300;2024-01-30T07:02:39;12.25;;;7.10;;
41739;SDS011;27422;52.444;13.300;2024-01-30T07:05:05;12.45;;;7.45;;
41739;SDS011;27422;52.444;13.300;2024-01-30T07:07:31;14.13;;;7.53;;
41739;SDS011;27422;52.444;13.300;2024-01-30T07:09:59;13.40;;;8.10;;
41739;SDS011;27422;52.444;13.300;2024-01-30T07:12:25;13.10;;;7.40;;
41739;SDS011;27422;52.444;13.300;2024-01-30T07:14:51;11.70;;;7.00;;
41739;SDS011;27422;52.444;13.300;2024-01-30T07:17:16;17.48;;;7.43;;
41739;SDS011;27422;52.444;13.300;2024-01-30T07:19:42;14.65;;;7.15;;
41739;SDS011;27422;52.444;13.300;2024-01-30T07:22:10;15.63;;;7.40;;
41739;SDS011;27422;52.444;13.300;2024-01-30T07:24:36;13.38;;;6.75;;
41739;SDS011;27422;52.444;13.300;2024-01-30T07:27:01;13.70;;;7.25;;
41739;SDS011;27422;52.444;13.300;2024-01-30T07:29:27;14.15;;;6.68;;
41739;SDS011;27422;52.444;13.300;2024-01-30T07:31:53;13.40;;;6.60;;
41739;SDS011;27422;52.444;13.300;2024-01-30T07:34:18;13.18;;;6.97;;
41739;SDS011;27422;52.444;13.300;2024-01-30T07:36:44;15.73;;;7.20;;
41739;SDS011;27422;52.444;13.300;2024-01-30T07:39:09;12.13;;;6.53;;
41739;SDS011;27422;52.444;13.300;2024-01-30T07:41:35;13.77;;;6.97;;
41739;SDS011;27422;52.444;13.300;2024-01-30T07:44:01;12.07;;;6.60;;
41739;SDS011;27422;52.444;13.300;2024-01-30T07:46:27;14.20;;;6.60;;
41739;SDS011;27422;52.444;13.300;2024-01-30T07:48:53;13.40;;;6.78;;
41739;SDS011;27422;52.444;13.300;2024-01-30T07:51:19;14.32;;;7.07;;
41739;SDS011;27422;52.444;13.300;2024-01-30T07:53:44;12.52;;;6.63;;
41739;SDS011;27422;52.444;13.300;2024-01-30T07:56:10;13.38;;;6.93;;
41739;SDS011;27422;52.444;13.300;2024-01-30T07:58:42;11.95;;;6.90;;
41739;SDS011;27422;52.444;13.300;2024-01-30T08:01:10;13.57;;;6.90;;
41739;SDS011;27422;52.444;13.300;2024-01-30T08:03:36;12.95;;;7.15;;
41739;SDS011;27422;52.444;13.300;2024-01-30T08:06:02;12.85;;;6.20;;
41739;SDS011;27422;52.444;13.300;2024-01-30T08:08:28;11.27;;;6.25;;
41739;SDS011;27422;52.444;13.300;2024-01-30T08:10:53;12.05;;;6.50;;
41739;SDS011;27422;52.444;13.300;2024-01-30T08:13:19;13.82;;;7.25;;
41739;SDS011;27422;52.444;13.300;2024-01-30T08:15:44;13.68;;;6.53;;
41739;SDS011;27422;52.444;13.300;2024-01-30T08:18:09;12.23;;;6.53;;
41739;SDS011;27422;52.444;13.300;2024-01-30T08:20:35;13.30;;;7.30;;
41739;SDS011;27422;52.444;13.300;2024-01-30T08:23:01;15.10;;;7.00;;
41739;SDS011;27422;52.444;13.300;2024-01-30T08:25:26;21.20;;;10.40;;
41739;SDS011;27422;52.444;13.300;2024-01-30T08:27:55;30.33;;;13.23;;
41739;SDS011;27422;52.444;13.300;2024-01-30T08:30:20;15.05;;;8.68;;
41739;SDS011;27422;52.444;13.300;2024-01-30T08:32:46;14.40;;;7.47;;
41739;SDS011;27422;52.444;13.300;2024-01-30T08:35:12;14.55;;;7.22;;
41739;SDS011;27422;52.444;13.300;2024-01-30T08:37:40;12.95;;;6.85;;
41739;SDS011;27422;52.444;13.300;2024-01-30T08:40:07;16.98;;;7.35;;
41739;SDS011;27422;52.444;13.300;2024-01-30T08:42:33;16.27;;;7.90;;
41739;SDS011;27422;52.444;13.300;2024-01-30T08:44:59;12.95;;;7.38;;
41739;SDS011;27422;52.444;13.300;2024-01-30T08:47:24;11.38;;;6.32;;
41739;SDS011;27422;52.444;13.300;2024-01-30T08:49:50;16.38;;;6.60;;
41739;SDS011;27422;52.444;13.300;2024-01-30T08:52:16;16.48;;;6.80;;
41739;SDS011;27422;52.444;13.300;2024-01-30T08:54:42;13.18;;;6.75;;
41739;SDS011;27422;52.444;13.300;2024-01-30T08:57:07;13.52;;;7.10;;
41739;SDS011;27422;52.444;13.300;2024-01-30T08:59:33;14.07;;;6.82;;
41739;SDS011;27422;52.444;13.300;2024-01-30T09:01:58;13.43;;;6.95;;
41739;SDS011;27422;52.444;13.300;2024-01-30T09:04:24;11.02;;;6.80;;
41739;SDS011;27422;52.444;13.300;2024-01-30T09:06:50;13.13;;;6.88;;
41739;SDS011;27422;52.444;13.300;2024-01-30T09:09:15;13.60;;;6.70;;
41739;SDS011;27422;52.444;13.300;2024-01-30T09:11:41;13.27;;;7.03;;
41739;SDS011;27422;52.444;13.300;2024-01-30T09:14:10;14.43;;;7.13;;
41739;SDS011;27422;52.444;13.300;2024-01-30T09:16:35;12.75;;;7.03;;
41739;SDS011;27422;52.444;13.300;2024-01-30T09:19:02;12.35;;;6.70;;
41739;SDS011;27422;52.444;13.300;2024-01-30T09:21:30;12.18;;;6.88;;
41739;SDS011;27422;52.444;13.300;2024-01-30T09:24:01;11.60;;;6.85;;
41739;SDS011;27422;52.444;13.300;2024-01-30T09:26:28;13.13;;;6.65;;
41739;SDS011;27422;52.444;13.300;2024-01-30T09:28:54;12.18;;;6.55;;
41739;SDS011;27422;52.444;13.300;2024-01-30T09:31:19;11.38;;;6.38;;
41739;SDS011;27422;52.444;13.300;2024-01-30T09:33:44;11.88;;;6.10;;
41739;SDS011;27422;52.444;13.300;2024-01-30T09:36:12;12.10;;;6.72;;
41739;SDS011;27422;52.444;13.300;2024-01-30T09:41:05;14.25;;;6.07;;
41739;SDS011;27422;52.444;13.300;2024-01-30T09:43:37;11.88;;;5.60;;
41739;SDS011;27422;52.444;13.300;2024-01-30T09:46:03;11.98;;;6.60;;
41739;SDS011;27422;52.444;13.300;2024-01-30T09:48:29;11.20;;;6.05;;
41739;SDS011;27422;52.444;13.300;2024-01-30T09:50:58;10.88;;;6.18;;
41739;SDS011;27422;52.444;13.300;2024-01-30T09:53:23;11.45;;;6.13;;
41739;SDS011;27422;52.444;13.300;2024-01-30T09:55:50;13.45;;;5.60;;
41739;SDS011;27422;52.444;13.300;2024-01-30T09:58:21;12.05;;;5.88;;
41739;SDS011;27422;52.444;13.300;2024-01-30T10:00:50;11.98;;;5.47;;
41739;SDS011;27422;52.444;13.300;2024-01-30T10:03:16;12.57;;;5.63;;
41739;SDS011;27422;52.444;13.300;2024-01-30T10:05:44;11.02;;;5.90;;
41739;SDS011;27422;52.444;13.300;2024-01-30T10:08:18;10.25;;;5.38;;
41739;SDS011;27422;52.444;13.300;2024-01-30T10:10:47;10.65;;;5.18;;
41739;SDS011;27422;52.444;13.300;2024-01-30T10:13:15;11.15;;;5.47;;
41739;SDS011;27422;52.444;13.300;2024-01-30T10:15:43;10.82;;;5.43;;
41739;SDS011;27422;52.444;13.300;2024-01-30T10:18:09;12.30;;;6.07;;
41739;SDS011;27422;52.444;13.300;2024-01-30T10:20:39;10.77;;;5.60;;
41739;SDS011;27422;52.444;13.300;2024-01-30T10:23:04;11.27;;;5.43;;
41739;SDS011;27422;52.444;13.300;2024-01-30T10:25:33;9.68;;;5.32;;
41739;SDS011;27422;52.444;13.300;2024-01-30T10:27:59;9.35;;;4.68;;
41739;SDS011;27422;52.444;13.300;2024-01-30T10:30:25;13.75;;;5.55;;
41739;SDS011;27422;52.444;13.300;2024-01-30T10:32:50;9.80;;;4.97;;
41739;SDS011;27422;52.444;13.300;2024-01-30T10:35:16;10.70;;;5.60;;
41739;SDS011;27422;52.444;13.300;2024-01-30T10:37:57;9.55;;;5.40;;
41739;SDS011;27422;52.444;13.300;2024-01-30T10:40:29;10.13;;;4.85;;
41739;SDS011;27422;52.444;13.300;2024-01-30T10:42:54;10.75;;;4.93;;
41739;SDS011;27422;52.444;13.300;2024-01-30T10:45:20;10.32;;;5.07;;
41739;SDS011;27422;52.444;13.300;2024-01-30T10:47:50;8.80;;;4.95;;
41739;SDS011;27422;52.444;13.300;2024-01-30T10:50:18;9.93;;;4.90;;
41739;SDS011;27422;52.444;13.300;2024-01-30T10:52:44;10.82;;;5.30;;
41739;SDS011;27422;52.444;13.300;2024-01-30T10:55:10;10.13;;;4.68;;
41739;SDS011;27422;52.444;13.300;2024-01-30T10:57:35;12.45;;;5.50;;
41739;SDS011;27422;52.444;13.300;2024-01-30T11:00:25;11.90;;;5.40;;
41739;SDS011;27422;52.444;13.300;2024-01-30T11:02:51;10.02;;;5.35;;
41739;SDS011;27422;52.444;13.300;2024-01-30T11:08:11;9.20;;;5.25;;
41739;SDS011;27422;52.444;13.300;2024-01-30T11:10:44;9.30;;;5.10;;
41739;SDS011;27422;52.444;13.300;2024-01-30T11:13:13;10.50;;;5.68;;
41739;SDS011;27422;52.444;13.300;2024-01-30T11:15:50;10.23;;;5.32;;
41739;SDS011;27422;52.444;13.300;2024-01-30T11:18:24;13.95;;;5.70;;
41739;SDS011;27422;52.444;13.300;2024-01-30T11:20:50;10.48;;;5.53;;
41739;SDS011;27422;52.444;13.300;2024-01-30T11:23:16;15.02;;;5.55;;
41739;SDS011;27422;52.444;13.300;2024-01-30T11:25:47;11.05;;;5.40;;
41739;SDS011;27422;52.444;13.300;2024-01-30T11:28:13;10.35;;;6.05;;
41739;SDS011;27422;52.444;13.300;2024-01-30T11:30:40;10.50;;;5.47;;
41739;SDS011;27422;52.444;13.300;2024-01-30T11:35:51;10.48;;;5.90;;
41739;SDS011;27422;52.444;13.300;2024-01-30T11:38:17;11.05;;;5.47;;
41739;SDS011;27422;52.444;13.300;2024-01-30T11:40:42;12.25;;;5.75;;
41739;SDS011;27422;52.444;13.300;2024-01-30T11:43:17;11.70;;;6.05;;
41739;SDS011;27422;52.444;13.300;2024-01-30T11:45:47;10.90;;;6.10;;
41739;SDS011;27422;52.444;13.300;2024-01-30T11:48:13;11.05;;;5.90;;
41739;SDS011;27422;52.444;13.300;2024-01-30T11:50:39;10.25;;;5.93;;
41739;SDS011;27422;52.444;13.300;2024-01-30T11:53:09;10.57;;;5.90;;
41739;SDS011;27422;52.444;13.300;2024-01-30T11:55:38;12.90;;;5.82;;
41739;SDS011;27422;52.444;13.300;2024-01-30T11:58:07;14.73;;;6.35;;
41739;SDS011;27422;52.444;13.300;2024-01-30T12:00:32;10.68;;;5.95;;
41739;SDS011;27422;52.444;13.300;2024-01-30T12:02:58;10.60;;;6.07;;
41739;SDS011;27422;52.444;13.300;2024-01-30T12:05:25;11.68;;;5.55;;
41739;SDS011;27422;52.444;13.300;2024-01-30T12:07:51;10.95;;;5.30;;
41739;SDS011;27422;52.444;13.300;2024-01-30T12:10:21;11.60;;;6.22;;
41739;SDS011;27422;52.444;13.300;2024-01-30T12:12:49;11.70;;;5.70;;
41739;SDS011;27422;52.444;13.300;2024-01-30T12:15:15;11.52;;;6.20;;
41739;SDS011;27422;52.444;13.300;2024-01-30T12:17:42;14.53;;;6.47;;
41739;SDS011;27422;52.444;13.300;2024-01-30T12:22:41;11.07;;;5.75;;
41739;SDS011;27422;52.444;13.300;2024-01-30T12:27:37;10.65;;;5.60;;
41739;SDS011;27422;52.444;13.300;2024-01-30T12:30:06;9.68;;;5.72;;
41739;SDS011;27422;52.444;13.300;2024-01-30T12:32:35;12.15;;;5.93;;
41739;SDS011;27422;52.444;13.300;2024-01-30T12:35:26;11.23;;;5.93;;
41739;SDS011;27422;52.444;13.300;2024-01-30T12:37:51;11.80;;;5.82;;
41739;SDS011;27422;52.444;13.300;2024-01-30T12:40:17;11.45;;;6.00;;
41739;SDS011;27422;52.444;13.300;2024-01-30T12:42:43;12.23;;;5.82;;
41739;SDS011;27422;52.444;13.300;2024-01-30T12:45:13;9.15;;;5.78;;
41739;SDS011;27422;52.444;13.300;2024-01-30T12:47:46;9.05;;;5.43;;
41739;SDS011;27422;52.444;13.300;2024-01-30T12:50:15;12.00;;;5.88;;
41739;SDS011;27422;52.444;13.300;2024-01-30T12:52:44;10.52;;;6.03;;
41739;SDS011;27422;52.444;13.300;2024-01-30T12:55:12;12.93;;;6.35;;
41739;SDS011;27422;52.444;13.300;2024-01-30T12:57:41;14.75;;;7.22;;
41739;SDS011;27422;52.444;13.300;2024-01-30T13:00:08;11.95;;;6.32;;
41739;SDS011;27422;52.444;13.300;2024-01-30T13:02:36;12.02;;;6.30;;
41739;SDS011;27422;52.444;13.300;2024-01-30T13:05:05;13.93;;;7.07;;
41739;SDS011;27422;52.444;13.300;2024-01-30T13:07:31;13.95;;;7.15;;
41739;SDS011;27422;52.444;13.300;2024-01-30T13:09:56;11.05;;;6.30;;
41739;SDS011;27422;52.444;13.300;2024-01-30T13:12:27;11.77;;;6.20;;
41739;SDS011;27422;52.444;13.300;2024-01-30T13:14:53;12.68;;;6.22;;
41739;SDS011;27422;52.444;13.300;2024-01-30T13:17:19;13.13;;;6.10;;
41739;SDS011;27422;52.444;13.300;2024-01-30T13:19:48;10.07;;;5.65;;
41739;SDS011;27422;52.444;13.300;2024-01-30T13:22:16;11.98;;;5.70;;
41739;SDS011;27422;52.444;13.300;2024-01-30T13:27:07;9.98;;;5.50;;
41739;SDS011;27422;52.444;13.300;2024-01-30T13:29:33;10.05;;;5.75;;
41739;SDS011;27422;52.444;13.300;2024-01-30T13:31:59;10.40;;;5.82;;
41739;SDS011;27422;52.444;13.300;2024-01-30T13:34:25;11.38;;;5.65;;
41739;SDS011;27422;52.444;13.300;2024-01-30T13:36:54;13.88;;;5.65;;
41739;SDS011;27422;52.444;13.300;2024-01-30T13:39:21;10.73;;;5.78;;
41739;SDS011;27422;52.444;13.300;2024-01-30T13:41:46;10.55;;;5.63;;
41739;SDS011;27422;52.444;13.300;2024-01-30T13:44:15;8.85;;;5.40;;
41739;SDS011;27422;52.444;13.300;2024-01-30T13:46:59;13.60;;;5.80;;
41739;SDS011;27422;52.444;13.300;2024-01-30T13:49:24;11.75;;;6.07;;
41739;SDS011;27422;52.444;13.300;2024-01-30T13:51:51;12.15;;;5.60;;
41739;SDS011;27422;52.444;13.300;2024-01-30T13:54:30;12.18;;;6.43;;
41739;SDS011;27422;52.444;13.300;2024-01-30T13:56:56;11.18;;;5.63;;
41739;SDS011;27422;52.444;13.300;2024-01-30T13:59:22;14.88;;;6.22;;
41739;SDS011;27422;52.444;13.300;2024-01-30T14:01:50;10.95;;;6.05;;
41739;SDS011;27422;52.444;13.300;2024-01-30T14:04:18;9.13;;;5.25;;
41739;SDS011;27422;52.444;13.300;2024-01-30T14:06:50;9.77;;;5.60;;
41739;SDS011;27422;52.444;13.300;2024-01-30T14:09:19;12.82;;;5.70;;
41739;SDS011;27422;52.444;13.300;2024-01-30T14:11:46;9.07;;;5.18;;
41739;SDS011;27422;52.444;13.300;2024-01-30T14:14:14;12.50;;;5.88;;
41739;SDS011;27422;52.444;13.300;2024-01-30T14:16:39;10.75;;;5.68;;
41739;SDS011;27422;52.444;13.300;2024-01-30T14:19:05;10.23;;;6.22;;
41739;SDS011;27422;52.444;13.300;2024-01-30T14:21:31;11.23;;;5.95;;
41739;SDS011;27422;52.444;13.300;2024-01-30T14:23:56;10.30;;;5.50;;
41739;SDS011;27422;52.444;13.300;2024-01-30T14:26:22;11.45;;;5.63;;
41739;SDS011;27422;52.444;13.300;2024-01-30T14:28:47;11.95;;;5.47;;
41739;SDS011;27422;52.444;13.300;2024-01-30T14:31:13;10.48;;;5.63;;
41739;SDS011;27422;52.444;13.300;2024-01-30T14:33:39;11.38;;;5.95;;
41739;SDS011;27422;52.444;13.300;2024-01-30T14:36:04;15.52;;;5.68;;
41739;SDS011;27422;52.444;13.300;2024-01-30T14:38:31;10.90;;;5.70;;
41739;SDS011;27422;52.444;13.300;2024-01-30T14:40:56;11.13;;;5.90;;
41739;SDS011;27422;52.444;13.300;2024-01-30T14:43:25;10.32;;;5.82;;
41739;SDS011;27422;52.444;13.300;2024-01-30T14:45:50;9.98;;;5.68;;